Portada
METAR-TAF:

METAR-TAF

Aeropuertos :

Vilhena, Rondonia, Brasil

latitud: 12-42S, longitud: 060-06W, altitud: 612 m

Observación

El informe se hizo hace 5 horas y 58 minutos, a las 23:00 UTC
Viento 3 kt del sur
Temperatura 23°C
Humedad 100%
Presión 1011 hPa
Visibilidad: 6000 m
Nubes dispersas a una altura de 1000 ft
Cielo nuboso a una altura de 2000 ft
Cielo cubierto a una altura de 7000 ft
lluvia ligera

METAR: SBVH 202300Z 19003KT 6000 -RA SCT010 BKN020 OVC070 23/23 Q1011

Hora: 00:58 (04:58 UTC)

Pronóstico

El informe se hizo hace 7 horas y 58 minutos, a las 21:00 UTC
Pronóstico válido del 21 a las 00 UTC al 21 a las 12 UTC
Viento 5 kt del oeste-noroeste
Visibilidad 10 km o más
Nubes dispersas a una altura de 2500 ft
Probabilidad 30%
del 21 a las 09 UTC al 21 a las 11 UTC
Visibilidad: 4000 m
Cielo nuboso a una altura de 600 ft
neblina

TAF: SBVH 202100Z 2100/2112 30005KT 9999 SCT025 TN22/2108Z TX24/2112Z PROB30 2109/2111 4000 BR BKN006 RMK PGY

Observaciones y pronósticos meteorológicos de más de 4000 aeropuertos (mensajes METAR y TAF).

Los puntos amarillos y rojos representan las estaciones disponibles.

Ponga el ratón en el punto deseado para ver el nombre de la estación.

Haga clic para ver las observaciones y los pronósticos meteorológicos.

Para cambiar el mapa : haga clic en los botones verdes con una cruz de color negro para hacer un zoom, en el botón verde con un guión para alejar o en las flechas verdes para mapas adyacentes.


METAR-TAF: